Time;durP1;ratioP1;P1;durP2;ratioP2;P2;SDS_P1;SDS_P2;PMS_P1;PMS_P2;Temp;Humidity;BMP_temperature;BMP_pressure;BME280_temperature;BME280_humidity;BME280_pressure;Samples;Min_cycle;Max_cycle;Signal;HPM_P1;HPM_P2
2020/12/14 00:00:42;;;;;;;6.07;2.60;;;7.70;99.90;;;11.80;78.27;100564.32;1710100;74;24472;-83
2020/12/14 00:03:01;;;;;;;3.92;2.22;;;7.70;99.90;;;11.96;77.64;100565.65;1708344;74;24544;-81
2020/12/14 00:05:17;;;;;;;4.79;2.30;;;7.70;99.90;;;11.89;77.78;100568.23;1712122;74;24441;-83
2020/12/14 00:07:35;;;;;;;5.59;2.44;;;7.70;99.90;;;11.85;77.77;100571.72;1714241;74;24494;-84
2020/12/14 00:09:51;;;;;;;4.19;2.20;;;7.60;99.90;;;11.96;76.50;100567.38;1712659;74;24424;-82
2020/12/14 00:12:10;;;;;;;3.88;1.97;;;7.60;99.90;;;11.79;76.99;100562.59;1708645;74;24965;-84
2020/12/14 00:14:25;;;;;;;6.05;2.30;;;7.60;99.90;;;11.69;77.50;100559.09;1711336;74;24453;-83
2020/12/14 00:16:47;;;;;;;2.25;1.71;;;7.60;99.90;;;11.97;76.85;100556.06;1710651;73;24786;-82
2020/12/14 00:19:04;;;;;;;5.50;2.05;;;7.60;99.90;;;11.75;77.79;100553.00;1711459;73;24463;-82
2020/12/14 00:21:20;;;;;;;5.57;2.31;;;7.60;99.90;;;11.87;77.67;100544.75;1712396;74;24444;-81
2020/12/14 00:23:39;;;;;;;4.22;1.79;;;7.70;99.90;;;12.19;75.94;100546.05;1710408;74;24562;-83
2020/12/14 00:25:55;;;;;;;3.24;1.86;;;7.70;99.90;;;12.09;76.51;100540.42;1714268;74;24467;-84
2020/12/14 00:28:12;;;;;;;4.75;2.20;;;7.80;99.90;;;12.08;76.46;100542.58;1706429;74;24441;-85
2020/12/14 00:30:28;;;;;;;8.28;2.21;;;7.80;99.90;;;12.22;75.10;100545.19;1712448;73;24553;-83
2020/12/14 00:32:44;;;;;;;4.93;2.51;;;7.80;99.90;;;12.11;75.74;100534.31;1703217;74;24420;-85
2020/12/14 00:35:00;;;;;;;3.35;1.76;;;7.80;99.90;;;12.20;75.57;100532.15;1699217;74;25408;-83
2020/12/14 00:37:18;;;;;;;4.07;1.85;;;7.80;99.90;;;11.99;76.54;100537.37;1709900;74;24464;-82
2020/12/14 00:39:36;;;;;;;4.67;2.25;;;7.80;99.90;;;12.08;76.02;100533.02;1688424;74;24424;-83
2020/12/14 00:41:54;;;;;;;4.36;1.99;;;7.80;99.90;;;12.29;74.68;100528.63;1710018;74;24885;-83
2020/12/14 00:44:10;;;;;;;4.89;2.53;;;7.90;99.90;;;12.03;76.07;100532.14;1709397;74;24867;-83
2020/12/14 00:46:26;;;;;;;4.76;2.53;;;7.90;99.90;;;12.04;76.00;100526.04;1715897;74;24434;-83
2020/12/14 00:48:44;;;;;;;4.58;1.78;;;7.90;99.90;;;12.22;75.53;100522.55;1717218;74;24522;-81
2020/12/14 00:51:01;;;;;;;4.75;1.90;;;7.90;99.90;;;12.05;75.94;100523.01;1681559;75;24949;-83
2020/12/14 00:53:21;;;;;;;3.99;1.82;;;7.90;99.90;;;12.00;76.40;100520.41;1707198;75;24447;-82
2020/12/14 00:55:37;;;;;;;3.54;1.87;;;7.90;99.90;;;12.13;75.54;100514.73;1706935;74;24488;-83
2020/12/14 00:57:53;;;;;;;3.17;1.69;;;8.00;99.90;;;12.14;75.44;100517.34;1707476;75;24443;-84
2020/12/14 01:00:09;;;;;;;4.00;1.80;;;8.00;99.90;;;12.02;75.90;100515.19;1714284;74;24487;-83
2020/12/14 01:02:25;;;;;;;5.30;2.35;;;8.00;99.90;;;12.13;75.61;100519.53;1710661;74;24562;-82
2020/12/14 01:04:41;;;;;;;5.47;2.22;;;8.00;99.90;;;12.11;75.55;100506.03;1706643;74;24539;-84
2020/12/14 01:06:58;;;;;;;2.38;1.72;;;7.90;99.90;;;12.15;75.06;100514.31;1711177;74;24523;-84
2020/12/14 01:09:14;;;;;;;4.66;1.74;;;7.90;99.90;;;12.13;75.39;100516.04;1706834;75;24437;-83
2020/12/14 01:11:31;;;;;;;2.07;1.39;;;7.90;99.90;;;12.13;76.05;100522.56;1708281;75;24447;-84
2020/12/14 01:13:47;;;;;;;3.46;1.67;;;7.90;99.90;;;12.21;76.09;100519.52;1707175;74;24500;-84
2020/12/14 01:16:08;;;;;;;3.86;2.03;;;8.00;99.90;;;12.27;75.53;100524.72;1706065;74;24658;-83
2020/12/14 01:18:26;;;;;;;3.12;1.71;;;8.00;99.90;;;12.27;76.13;100529.06;1710390;74;24495;-82
2020/12/14 01:20:42;;;;;;;4.74;1.96;;;8.10;99.90;;;12.29;75.75;100530.82;1706970;74;24954;-82
2020/12/14 01:22:59;;;;;;;4.06;1.84;;;8.10;99.90;;;12.49;74.85;100532.95;1711451;74;24642;-83
2020/12/14 01:25:15;;;;;;;4.05;1.78;;;8.10;99.90;;;12.26;75.70;100524.30;1706699;74;24440;-83
2020/12/14 01:27:31;;;;;;;4.40;2.15;;;8.20;99.90;;;12.35;75.68;100526.89;1712079;74;24445;-82
2020/12/14 01:29:48;;;;;;;4.58;1.76;;;8.10;99.90;;;12.42;74.76;100519.48;1713908;74;24492;-82
2020/12/14 01:32:04;;;;;;;4.26;2.02;;;8.20;99.90;;;12.45;74.67;100520.78;1709141;74;24479;-83
2020/12/14 01:34:20;;;;;;;4.75;1.90;;;8.20;99.90;;;12.57;74.28;100521.17;1706988;74;24925;-85
2020/12/14 01:36:38;;;;;;;3.76;1.81;;;8.20;99.90;;;12.38;74.80;100499.92;1709119;74;24881;-83
2020/12/14 01:38:54;;;;;;;4.71;1.98;;;8.20;99.90;;;12.53;74.62;100502.05;1711902;74;24510;-82
2020/12/14 01:41:12;;;;;;;2.98;1.74;;;8.20;99.90;;;12.44;74.70;100504.66;1707301;74;24434;-82
2020/12/14 01:43:28;;;;;;;3.64;1.83;;;8.20;99.90;;;12.26;75.22;100504.72;1707749;74;24450;-81
2020/12/14 01:45:44;;;;;;;3.21;1.36;;;8.20;99.90;;;12.26;75.82;100519.08;1715804;74;24577;-83
2020/12/14 01:50:33;;;;;;;2.32;1.77;;;8.20;99.90;;;12.58;74.25;100511.17;1746102;72;25338;-85
2020/12/14 01:52:51;;;;;;;2.71;1.74;;;8.10;99.90;;;12.34;75.10;100512.53;1719785;73;24488;-81
2020/12/14 01:55:12;;;;;;;3.64;1.96;;;8.10;99.90;;;12.15;75.75;100504.72;1718591;73;24491;-84
2020/12/14 01:57:28;;;;;;;2.59;1.53;;;8.10;99.90;;;12.36;74.87;100506.42;1729465;73;24575;-82
2020/12/14 01:59:45;;;;;;;5.92;1.96;;;8.10;99.90;;;12.23;76.00;100502.55;1717501;74;24543;-83
2020/12/14 02:02:02;;;;;;;3.11;2.05;;;8.10;99.90;;;12.36;75.44;100497.28;1717477;74;24878;-84
2020/12/14 02:04:18;;;;;;;2.33;1.42;;;8.10;99.90;;;12.41;75.30;100498.14;1718952;75;24432;-84
2020/12/14 02:06:37;;;;;;;3.30;1.88;;;8.10;99.90;;;12.44;75.43;100492.91;1728803;73;24490;-84
2020/12/14 02:08:54;;;;;;;5.44;2.03;;;8.20;99.90;;;12.43;75.55;100496.84;1717813;73;24449;-81
2020/12/14 02:11:11;;;;;;;3.77;2.36;;;8.20;99.90;;;12.51;75.66;100506.83;1718628;73;24419;-84
2020/12/14 02:13:30;;;;;;;5.40;1.58;;;8.30;99.90;;;12.61;74.87;100498.98;1728939;73;24482;-82
2020/12/14 02:15:48;;;;;;;4.10;1.92;;;8.30;99.90;;;12.46;75.62;100500.74;1722878;73;24478;-83
2020/12/14 02:18:05;;;;;;;4.49;2.19;;;8.30;99.90;;;12.62;75.02;100513.77;1724585;73;24634;-82
2020/12/14 02:20:23;;;;;;;3.20;1.87;;;8.30;99.90;;;12.74;75.42;100501.95;1718387;75;24451;-84
2020/12/14 02:22:46;;;;;;;3.69;1.54;;;8.40;99.90;;;12.69;75.08;100502.87;1722021;73;24499;-82
2020/12/14 02:25:06;;;;;;;2.99;1.68;;;8.40;99.90;;;12.55;75.79;100502.89;1720716;74;24468;-83
2020/12/14 02:27:22;;;;;;;3.25;2.11;;;8.40;99.90;;;12.60;75.87;100502.91;1719093;74;24588;-84
2020/12/14 02:29:38;;;;;;;2.18;1.38;;;8.40;99.90;;;12.78;74.99;100504.13;1718522;74;24459;-83
2020/12/14 02:31:54;;;;;;;2.50;1.62;;;8.40;99.90;;;12.62;75.63;100495.48;1718978;74;24507;-82
2020/12/14 02:34:11;;;;;;;5.12;2.39;;;8.40;99.90;;;12.51;76.56;100493.77;1717335;74;25196;-82
2020/12/14 02:36:27;;;;;;;3.45;2.10;;;8.50;99.90;;;12.84;74.84;100489.73;1736163;73;24543;-84
2020/12/14 02:38:43;;;;;;;2.99;1.73;;;8.50;99.90;;;12.85;74.77;100479.73;1717615;75;24479;-83
2020/12/14 02:40:59;;;;;;;4.87;1.98;;;8.50;99.90;;;12.70;75.39;100485.88;1722560;73;24571;-83
2020/12/14 02:43:16;;;;;;;2.60;1.58;;;8.50;99.90;;;12.69;76.32;100472.39;1717521;75;24483;-83
2020/12/14 02:45:33;;;;;;;2.69;1.78;;;8.50;99.90;;;12.65;76.10;100478.91;1718294;73;24492;-84
2020/12/14 02:47:51;;;;;;;3.48;1.65;;;8.50;99.90;;;12.77;75.47;100467.13;1723804;73;24501;-82
2020/12/14 02:50:08;;;;;;;3.60;1.80;;;8.50;99.90;;;12.64;76.40;100461.09;1727955;73;24444;-81
2020/12/14 02:52:29;;;;;;;2.31;1.32;;;8.50;99.90;;;12.76;75.41;100451.00;1726470;73;25087;-83
2020/12/14 02:54:46;;;;;;;2.06;1.47;;;8.50;99.90;;;12.64;76.54;100464.13;1733135;73;24873;-84
2020/12/14 02:57:04;;;;;;;4.30;2.44;;;8.40;99.90;;;12.57;76.56;100489.83;1727781;73;24922;-81
2020/12/14 02:59:24;;;;;;;4.26;1.90;;;8.30;99.90;;;12.70;76.06;100482.39;1726100;73;24439;-80
2020/12/14 03:01:41;;;;;;;4.65;1.94;;;8.20;99.90;;;12.52;75.78;100467.64;1734634;73;24439;-82
2020/12/14 03:04:00;;;;;;;3.38;2.09;;;8.00;99.90;;;12.44;76.88;100468.56;1729211;73;24480;-82
2020/12/14 03:06:16;;;;;;;2.41;1.62;;;7.90;99.90;;;12.62;75.97;100465.87;1725854;73;24876;-83
2020/12/14 03:08:36;;;;;;;3.98;1.78;;;7.80;99.90;;;12.42;77.62;100462.05;1725523;73;24441;-82
2020/12/14 03:10:54;;;;;;;2.49;1.59;;;7.70;99.90;;;12.41;77.60;100472.03;1728706;73;24444;-83
2020/12/14 03:13:13;;;;;;;5.04;1.89;;;7.70;99.90;;;12.34;79.15;100453.36;1728472;73;24413;-83
2020/12/14 03:15:29;;;;;;;3.94;2.00;;;7.70;99.90;;;12.32;79.71;100461.63;1725807;74;24451;-84
2020/12/14 03:17:45;;;;;;;2.92;2.32;;;7.70;99.90;;;12.59;78.90;100451.09;1725713;74;24629;-83
2020/12/14 03:20:02;;;;;;;2.45;1.90;;;7.70;99.90;;;12.37;79.97;100453.77;1727686;73;24952;-82
2020/12/14 03:22:18;;;;;;;4.80;2.58;;;7.70;99.90;;;12.51;79.79;100442.41;1739938;73;24506;-84
2020/12/14 03:24:38;;;;;;;1.78;1.64;;;7.70;99.90;;;12.34;81.56;100439.00;1729548;73;24749;-83
2020/12/14 03:26:54;;;;;;;3.24;2.00;;;7.70;99.90;;;12.15;83.00;100453.81;1727892;73;24464;-83
2020/12/14 03:29:10;;;;;;;5.09;2.16;;;7.70;99.90;;;12.27;83.30;100452.93;1725610;74;24450;-83
2020/12/14 03:31:28;;;;;;;4.13;2.11;;;7.60;99.90;;;12.27;83.88;100452.93;1725672;73;24507;-84
2020/12/14 03:33:44;;;;;;;4.07;2.20;;;7.60;99.90;;;12.19;84.32;100457.30;1745001;73;24544;-83
2020/12/14 03:36:02;;;;;;;3.51;1.99;;;7.60;99.90;;;12.31;84.68;100447.27;1733312;73;24543;-84
2020/12/14 03:38:19;;;;;;;3.91;1.92;;;7.50;99.90;;;11.94;86.02;100448.66;1730726;73;24467;-84
2020/12/14 03:40:35;;;;;;;4.02;2.34;;;7.50;99.90;;;12.05;86.29;100447.33;1737397;73;24863;-83
2020/12/14 03:42:52;;;;;;;3.70;1.98;;;7.50;99.90;;;12.31;85.51;100440.74;1725751;74;24467;-84
2020/12/14 03:45:08;;;;;;;4.33;2.32;;;7.50;99.90;;;12.41;84.77;100440.70;1737907;73;24432;-82
2020/12/14 03:47:25;;;;;;;4.72;2.17;;;7.50;99.90;;;12.29;85.83;100452.50;1741662;73;24500;-84
2020/12/14 03:49:43;;;;;;;2.97;1.78;;;7.50;99.90;;;12.26;85.93;100455.55;1725733;73;24464;-83
2020/12/14 03:52:02;;;;;;;6.03;2.57;;;7.60;99.90;;;12.15;87.56;100453.81;1708818;74;24964;-83
2020/12/14 03:54:21;;;;;;;4.00;2.39;;;7.60;99.90;;;12.23;87.88;100445.99;1715083;74;24506;-82
2020/12/14 03:56:37;;;;;;;5.53;1.91;;;7.60;99.90;;;12.25;87.37;100443.38;1707725;74;24503;-82
2020/12/14 03:58:57;;;;;;;3.25;2.43;;;7.60;99.90;;;12.17;87.46;100444.25;1706293;74;24496;-84
2020/12/14 04:01:13;;;;;;;3.50;2.22;;;7.60;99.90;;;12.35;87.61;100443.77;1707451;74;24968;-83
2020/12/14 04:03:30;;;;;;;3.79;2.46;;;7.60;99.90;;;12.27;88.43;100446.41;1707576;74;24450;-85
2020/12/14 04:05:47;;;;;;;4.35;2.11;;;7.60;99.90;;;12.39;88.21;100443.78;1714277;74;24429;-83
2020/12/14 04:08:05;;;;;;;4.82;2.00;;;7.70;99.90;;;12.17;89.38;100446.86;1707612;75;24524;-84
2020/12/14 04:10:21;;;;;;;7.07;1.65;;;7.70;99.90;;;12.19;90.00;100438.59;1713542;74;24494;-84
2020/12/14 04:12:37;;;;;;;4.04;2.33;;;7.80;99.90;;;12.27;90.29;100446.83;1708754;74;24441;-84
2020/12/14 04:14:54;;;;;;;5.12;2.15;;;7.80;99.90;;;12.28;90.41;100453.38;1708924;74;24898;-82
2020/12/14 04:17:10;;;;;;;4.54;2.38;;;7.80;99.90;;;12.41;90.29;100445.92;1709417;74;24944;-82
2020/12/14 04:19:27;;;;;;;4.38;1.90;;;7.80;99.90;;;12.41;89.90;100439.85;1707388;74;24519;-83
2020/12/14 04:21:44;;;;;;;4.20;2.28;;;7.80;99.90;;;12.20;91.13;100443.39;1707205;74;24540;-84
2020/12/14 04:24:00;;;;;;;4.72;2.60;;;7.80;99.90;;;12.37;90.64;100445.52;1718221;74;24428;-82
2020/12/14 04:26:17;;;;;;;3.59;2.21;;;7.80;99.90;;;12.51;90.40;100451.98;1711015;74;24425;-82
2020/12/14 04:28:33;;;;;;;4.44;1.88;;;7.80;99.90;;;12.39;90.84;100446.81;1712805;74;24415;-83
2020/12/14 04:30:50;;;;;;;2.73;2.08;;;7.80;99.90;;;12.34;90.83;100442.92;1707416;75;24441;-81
2020/12/14 04:33:07;;;;;;;3.60;2.02;;;7.80;99.90;;;12.50;90.91;100452.44;1709207;75;24438;-82
2020/12/14 04:35:23;;;;;;;2.98;2.12;;;7.80;99.90;;;12.47;90.61;100435.45;1716355;74;24455;-82
2020/12/14 04:37:41;;;;;;;3.50;1.80;;;7.80;99.90;;;12.64;90.59;100449.77;1720250;74;24439;-82
2020/12/14 04:39:58;;;;;;;2.64;1.91;;;7.90;99.90;;;12.46;91.71;100446.78;1720202;74;24466;-83
2020/12/14 04:42:15;;;;;;;5.49;2.42;;;7.90;99.90;;;12.55;91.29;100444.13;1709252;74;24585;-82
2020/12/14 04:44:38;;;;;;;2.44;1.46;;;7.90;99.90;;;12.65;91.75;100447.57;1708251;74;24536;-83
2020/12/14 04:46:56;;;;;;;2.63;1.93;;;7.90;99.90;;;12.53;91.59;100451.13;1705525;74;24535;-82
2020/12/14 04:49:12;;;;;;;3.02;1.75;;;7.90;99.90;;;12.67;90.75;100445.83;1711036;74;24591;-80
2020/12/14 04:51:28;;;;;;;3.99;1.93;;;7.90;99.90;;;12.41;91.71;100435.48;1705972;74;24512;-82
2020/12/14 04:53:47;;;;;;;2.51;1.49;;;7.90;99.90;;;12.53;91.95;100443.71;1706529;74;24465;-80
2020/12/14 04:56:08;;;;;;;4.46;2.01;;;7.90;99.90;;;12.33;92.64;100435.09;1715486;74;24479;-81
2020/12/14 04:58:24;;;;;;;3.36;1.80;;;7.90;99.90;;;12.60;91.95;100436.30;1705801;75;24440;-82
2020/12/14 05:00:42;;;;;;;2.78;1.62;;;7.90;99.90;;;12.58;92.18;100436.30;1715095;74;24703;-81
2020/12/14 05:03:02;;;;;;;3.11;2.00;;;7.90;99.90;;;12.62;91.50;100440.63;1706433;74;24440;-81
2020/12/14 05:05:23;;;;;;;3.01;1.95;;;7.90;99.90;;;12.57;92.21;100441.08;1707537;74;24538;-81
2020/12/14 05:07:45;;;;;;;2.51;1.58;;;7.90;99.90;;;12.67;91.82;100436.69;1707967;74;24430;-82
2020/12/14 05:10:08;;;;;;;1.96;1.57;;;7.90;99.90;;;12.47;92.67;100434.14;1717407;74;24458;-85
2020/12/14 05:12:27;;;;;;;3.19;2.07;;;7.90;99.90;;;12.67;91.74;100432.34;1706157;74;24784;-84
2020/12/14 05:14:43;;;;;;;2.65;1.67;;;7.90;99.90;;;12.75;91.10;100428.38;1705815;75;24516;-81
2020/12/14 05:17:00;;;;;;;3.17;2.07;;;7.90;99.90;;;12.72;91.29;100422.74;1705920;74;24452;-82
2020/12/14 05:19:30;;;;;;;3.33;2.31;;;7.90;99.90;;;12.79;91.34;100423.13;1707248;74;24598;-80
2020/12/14 05:21:51;;;;;;;4.70;2.09;;;7.90;99.90;;;12.81;91.29;100421.81;1680049;75;24970;-81
2020/12/14 05:24:08;;;;;;;2.60;2.03;;;7.90;99.90;;;12.62;92.14;100426.27;1705675;75;24448;-81
2020/12/14 05:26:31;;;;;;;5.03;2.25;;;7.90;99.90;;;12.56;91.97;100429.33;1712914;74;24485;-81
2020/12/14 05:28:55;;;;;;;2.31;2.03;;;7.90;99.90;;;12.56;92.74;100426.30;1707115;75;24975;-83
2020/12/14 05:31:29;;;;;;;3.98;1.93;;;7.90;99.90;;;12.64;92.83;100427.13;1708797;74;24477;-82
2020/12/14 05:33:46;;;;;;;2.66;2.12;;;7.90;99.90;;;12.59;92.43;100427.59;1706309;74;24480;-80
2020/12/14 05:36:03;;;;;;;2.96;1.95;;;7.90;99.90;;;12.56;92.47;100426.72;1705380;74;24450;-82
2020/12/14 05:38:23;;;;;;;2.76;2.02;;;7.90;99.90;;;12.39;93.54;100422.89;1706383;74;24472;-81
2020/12/14 05:40:40;;;;;;;1.93;1.68;;;7.90;99.90;;;12.44;94.23;100421.56;1710040;74;24991;-82
2020/12/14 05:43:01;;;;;;;3.76;2.18;;;7.90;99.90;;;12.51;93.88;100418.03;1707747;74;24419;-82
2020/12/14 05:45:21;;;;;;;4.34;2.90;;;8.00;99.90;;;12.66;93.52;100413.60;1712877;74;24464;-82
2020/12/14 05:47:45;;;;;;;2.58;1.92;;;8.00;99.90;;;12.63;94.31;100418.84;1710771;74;24945;-81
2020/12/14 05:50:05;;;;;;;4.10;2.37;;;8.00;99.90;;;12.78;93.26;100410.06;1710237;74;24500;-83
2020/12/14 05:52:25;;;;;;;3.46;2.72;;;8.00;99.90;;;12.75;93.50;100410.97;1713225;74;24543;-82
2020/12/14 05:54:47;;;;;;;3.09;2.84;;;8.00;99.90;;;12.85;92.93;100411.33;1721040;74;24961;-85
2020/12/14 05:57:05;;;;;;;3.09;2.44;;;8.00;99.90;;;12.69;94.00;100413.62;1714034;74;24953;-82
2020/12/14 05:59:22;;;;;;;3.13;2.83;;;8.00;99.90;;;12.80;93.46;100419.66;1711526;74;24495;-81
2020/12/14 06:01:40;;;;;;;4.53;2.89;;;8.00;99.90;;;12.70;94.21;100427.09;1706909;75;24448;-83
2020/12/14 06:03:59;;;;;;;2.23;1.80;;;8.00;99.90;;;12.96;93.77;100409.98;1705848;74;24551;-81
2020/12/14 06:06:19;;;;;;;3.48;3.16;;;8.10;99.90;;;12.67;94.19;100416.66;1705398;75;24497;-81
2020/12/14 06:09:09;;;;;;;3.93;2.18;;;8.10;99.90;;;12.96;93.65;100410.82;1713427;74;24428;-81
2020/12/14 06:11:29;;;;;;;3.11;2.50;;;8.10;99.90;;;12.70;94.53;100412.73;1707081;74;25203;-81
2020/12/14 06:13:52;;;;;;;4.53;2.97;;;8.10;99.90;;;12.84;94.47;100421.36;1706165;74;24469;-81
2020/12/14 06:16:14;;;;;;;2.22;1.98;;;8.10;99.90;;;12.94;93.94;100411.73;1714779;74;24414;-84
2020/12/14 06:18:40;;;;;;;5.98;2.73;;;8.10;99.90;;;12.82;94.20;100407.42;1709503;74;24519;-81
2020/12/14 06:20:56;;;;;;;3.82;2.49;;;8.20;99.90;;;12.97;93.93;100409.09;1711852;74;24508;-77
2020/12/14 06:23:17;;;;;;;2.77;2.31;;;8.10;99.90;;;12.89;94.17;100410.45;1709818;74;24420;-79
2020/12/14 06:25:37;;;;;;;3.40;2.26;;;8.10;99.90;;;12.76;94.76;100408.77;1706742;74;24902;-79
2020/12/14 06:27:53;;;;;;;2.99;2.45;;;8.10;99.90;;;12.78;94.69;100406.15;1705749;75;24517;-78
2020/12/14 06:30:34;;;;;;;3.63;2.60;;;8.20;99.90;;;12.85;94.31;100413.94;1714350;74;24408;-78
2020/12/14 06:32:53;;;;;;;3.51;2.25;;;8.10;99.90;;;12.72;95.51;100407.50;1710828;74;24502;-77
2020/12/14 06:35:17;;;;;;;2.28;1.65;;;8.10;99.90;;;12.70;95.21;100432.32;1712474;74;24544;-78
2020/12/14 06:40:39;;;;;;;3.15;1.82;;;8.10;99.90;;;12.65;96.11;100418.41;1746597;72;25699;-78
2020/12/14 06:42:56;;;;;;;4.75;2.73;;;8.10;99.90;;;12.52;96.75;100418.02;1698636;74;24611;-80
2020/12/14 06:45:24;;;;;;;2.10;1.87;;;8.10;99.90;;;12.66;96.15;100435.80;1707211;75;24487;-78
2020/12/14 06:47:50;;;;;;;2.80;2.56;;;8.10;99.90;;;12.68;95.65;100438.41;1707108;75;24457;-77
2020/12/14 06:50:37;;;;;;;3.96;2.46;;;8.10;99.90;;;12.60;96.56;100433.69;1702477;74;24468;-78
2020/12/14 06:52:52;;;;;;;4.18;2.99;;;8.10;99.90;;;12.45;97.54;100433.30;1706745;75;25135;-81
2020/12/14 06:55:13;;;;;;;6.72;2.84;;;8.10;99.90;;;12.70;96.97;100437.55;1699517;75;24509;-81
2020/12/14 06:57:38;;;;;;;2.61;2.03;;;8.10;99.90;;;12.71;96.63;100430.13;1696496;75;24553;-83
2020/12/14 06:59:58;;;;;;;3.72;3.36;;;8.10;99.90;;;12.56;96.39;100440.66;1708145;75;24458;-84
2020/12/14 07:02:18;;;;;;;4.38;3.11;;;8.10;99.90;;;12.90;96.24;100435.69;1702583;75;24424;-81
2020/12/14 07:04:45;;;;;;;4.16;2.68;;;8.10;99.90;;;12.77;95.63;100435.78;1707192;75;24605;-86
2020/12/14 07:07:33;;;;;;;3.73;3.06;;;8.10;99.90;;;12.65;96.15;100429.28;1699082;75;24452;-84
2020/12/14 07:09:50;;;;;;;2.88;1.77;;;8.10;99.90;;;12.62;96.66;100421.04;1707315;75;24537;-84
2020/12/14 07:12:30;;;;;;;4.39;3.18;;;8.00;99.90;;;12.48;96.93;100429.38;1699186;75;24577;-80
2020/12/14 07:14:50;;;;;;;4.68;3.22;;;8.00;99.90;;;12.93;96.29;100426.52;1691401;75;24508;-78
2020/12/14 07:17:20;;;;;;;4.70;3.40;;;8.00;99.90;;;12.82;95.97;100410.04;1696131;75;24494;-81
2020/12/14 07:19:38;;;;;;;4.39;2.88;;;8.10;99.90;;;12.73;96.49;100416.63;1702634;75;24452;-79
2020/12/14 07:21:59;;;;;;;4.72;3.63;;;8.10;99.90;;;12.84;95.73;100419.17;1693917;75;24995;-80
2020/12/14 07:24:18;;;;;;;5.00;3.10;;;8.10;99.90;;;12.79;96.17;100427.47;1707259;75;24513;-81
2020/12/14 07:26:35;;;;;;;4.00;2.90;;;8.10;99.90;;;12.94;95.68;100427.41;1696044;75;24430;-80
2020/12/14 07:31:39;;;;;;;4.54;3.71;;;8.20;99.90;;;13.13;95.61;100419.48;1741945;72;25206;-82
2020/12/14 07:33:58;;;;;;;6.67;2.98;;;8.20;99.90;;;13.07;95.67;100429.95;1718630;75;24444;-79
2020/12/14 07:36:15;;;;;;;3.92;3.08;;;8.20;99.90;;;12.93;96.17;100421.30;1686465;75;24943;-80
2020/12/14 07:38:31;;;;;;;3.80;3.50;;;8.20;99.90;;;12.96;96.49;100431.73;1719130;74;24485;-80
2020/12/14 07:40:50;;;;;;;4.42;4.03;;;8.30;99.90;;;13.00;96.86;100435.20;1720010;73;24480;-81
2020/12/14 07:43:06;;;;;;;5.48;4.98;;;8.30;99.90;;;13.27;95.87;100433.76;1718933;74;24442;-82
2020/12/14 07:45:38;;;;;;;3.82;3.25;;;8.30;99.90;;;13.47;95.25;100438.39;1719250;73;24597;-80
2020/12/14 07:47:56;;;;;;;4.28;3.46;;;8.40;99.90;;;13.16;96.27;100433.84;1717819;75;24480;-80
2020/12/14 07:50:16;;;;;;;4.19;3.81;;;8.40;99.90;;;13.19;96.78;100444.70;1719674;74;24496;-78
2020/12/14 07:52:35;;;;;;;4.44;3.95;;;8.40;99.90;;;13.22;96.50;100448.61;1717961;74;24480;-81
2020/12/14 07:55:01;;;;;;;4.66;4.19;;;8.50;99.90;;;13.26;96.45;100450.34;1729476;73;24448;-82
2020/12/14 07:57:27;;;;;;;4.49;3.46;;;8.50;99.90;;;13.42;96.84;100447.59;1673646;75;24536;-82
2020/12/14 07:59:38;;;;;;;5.99;4.65;;;8.50;99.90;;;13.38;96.23;100450.24;1716161;75;24429;-83
2020/12/14 08:01:56;;;;;;;5.88;5.37;;;8.60;99.90;;;13.45;96.19;100451.48;1717558;73;24522;-79
2020/12/14 08:04:13;;;;;;;4.53;3.90;;;8.70;99.90;;;13.78;95.54;100454.30;1724898;73;24542;-82
2020/12/14 08:06:31;;;;;;;5.68;4.37;;;8.70;99.90;;;13.47;96.15;100464.55;1724219;73;24937;-79
2020/12/14 08:08:51;;;;;;;5.12;4.66;;;8.70;99.90;;;13.65;96.37;100465.30;1732326;73;24499;-82
2020/12/14 08:11:09;;;;;;;5.20;4.06;;;8.70;99.90;;;13.68;96.09;100453.50;1720019;73;24560;-84
2020/12/14 08:13:26;;;;;;;4.47;4.07;;;8.80;99.90;;;13.66;96.34;100464.41;1721618;73;24456;-86
2020/12/14 08:15:43;;;;;;;3.98;3.55;;;8.80;99.90;;;13.63;96.40;100459.64;1692426;73;24535;-82
2020/12/14 08:18:20;;;;;;;4.81;4.40;;;8.80;99.90;;;13.68;96.70;100483.59;1718076;73;24521;-82
2020/12/14 08:20:52;;;;;;;4.82;4.35;;;8.90;99.90;;;13.85;96.65;100479.98;1717607;74;24452;-85
2020/12/14 08:23:19;;;;;;;5.85;4.40;;;8.90;99.90;;;13.78;96.06;100483.51;1729892;73;25007;-83
2020/12/14 08:25:41;;;;;;;5.51;4.76;;;8.90;99.90;;;13.70;97.00;100481.80;1720639;74;25120;-83
2020/12/14 08:28:03;;;;;;;5.68;5.14;;;8.90;99.90;;;13.81;97.26;100492.21;1717536;73;24463;-84
2020/12/14 08:30:25;;;;;;;4.51;4.11;;;9.00;99.90;;;13.92;96.70;100484.26;1684815;75;24648;-83
2020/12/14 08:32:41;;;;;;;5.95;5.36;;;9.00;99.90;;;13.72;97.15;100484.41;1700191;74;24471;-82
2020/12/14 08:34:58;;;;;;;7.00;5.06;;;9.00;99.90;;;13.88;96.52;100491.26;1663818;77;24456;-84
2020/12/14 08:37:21;;;;;;;5.99;5.26;;;9.00;99.90;;;13.82;96.95;100489.13;1731633;73;24555;-82
2020/12/14 08:39:39;;;;;;;4.88;4.02;;;9.10;99.90;;;13.92;97.06;100487.75;1724971;74;24603;-81
2020/12/14 08:42:11;;;;;;;5.11;4.65;;;9.10;99.90;;;13.89;96.94;100492.14;1737046;73;24500;-79
2020/12/14 08:44:28;;;;;;;5.63;5.21;;;9.10;99.90;;;14.01;97.36;100494.20;1724967;73;24519;-81
2020/12/14 08:46:45;;;;;;;3.80;3.45;;;9.10;99.90;;;14.17;96.66;100496.23;1692194;75;24510;-81
2020/12/14 08:49:04;;;;;;;4.89;4.46;;;9.20;99.90;;;14.01;96.42;100492.02;1705510;75;24446;-83
2020/12/14 08:51:24;;;;;;;5.69;4.96;;;9.20;99.90;;;14.08;97.31;100497.64;1700039;74;25064;-83
2020/12/14 08:53:42;;;;;;;5.25;4.77;;;9.20;99.90;;;14.19;96.62;100495.36;1730291;73;24509;-80
2020/12/14 08:56:07;;;;;;;4.56;4.16;;;9.20;99.90;;;14.18;96.75;100490.98;1725710;74;24552;-80
2020/12/14 08:58:23;;;;;;;3.94;3.63;;;9.30;99.90;;;14.05;97.20;100505.53;1731607;73;24479;-80
2020/12/14 09:00:42;;;;;;;3.83;3.51;;;9.30;99.90;;;14.29;97.21;100511.88;1738722;73;25693;-82
2020/12/14 09:03:07;;;;;;;6.05;5.45;;;9.30;99.90;;;14.28;96.77;100514.06;1726224;73;24583;-79
2020/12/14 09:05:24;;;;;;;4.90;4.47;;;9.40;99.90;;;14.58;97.23;100517.67;1728716;73;24586;-81
2020/12/14 09:07:42;;;;;;;5.66;5.16;;;9.40;99.90;;;14.47;96.66;100520.42;1691915;75;24504;-78
2020/12/14 09:10:01;;;;;;;6.70;4.89;;;9.50;99.90;;;14.63;96.46;100511.95;1643476;77;24554;-81
2020/12/14 09:12:18;;;;;;;5.85;5.30;;;9.60;99.90;;;14.64;96.37;100512.36;1669675;76;24481;-80
2020/12/14 09:14:55;;;;;;;5.18;4.78;;;9.60;99.90;;;14.76;96.42;100522.72;1687962;75;24453;-83
2020/12/14 09:17:18;;;;;;;5.10;4.70;;;9.60;99.90;;;14.56;96.77;100520.31;1737672;73;24546;-81
2020/12/14 09:19:38;;;;;;;5.25;4.86;;;9.60;99.90;;;14.69;96.49;100532.84;1743786;73;24864;-85
2020/12/14 09:21:54;;;;;;;4.62;4.22;;;9.70;99.90;;;14.90;96.40;100516.87;1735021;73;24942;-85
2020/12/14 09:24:24;;;;;;;4.30;3.89;;;9.70;99.90;;;14.96;96.14;100523.34;1742323;73;24420;-85
2020/12/14 09:26:41;;;;;;;4.59;4.18;;;9.80;99.90;;;15.00;96.17;100523.28;1734824;73;24386;-86
2020/12/14 09:29:00;;;;;;;4.49;4.10;;;9.80;99.90;;;15.05;95.98;100525.41;1732964;74;24451;-85
2020/12/14 09:31:16;;;;;;;5.59;4.95;;;9.90;99.90;;;15.03;96.34;100519.77;1742701;73;24463;-83
2020/12/14 09:33:36;;;;;;;3.80;3.50;;;9.90;99.90;;;15.32;95.69;100520.23;1718929;73;24439;-84
2020/12/14 09:35:54;;;;;;;3.87;3.56;;;10.10;99.90;;;15.22;96.44;100539.63;1726497;73;24442;-84
2020/12/14 09:38:10;;;;;;;4.07;3.74;;;10.10;99.90;;;15.29;96.47;100532.52;1719981;73;24431;-85
2020/12/14 09:40:28;;;;;;;4.06;3.69;;;10.20;99.90;;;15.37;97.48;100539.84;1719009;74;24575;-81
2020/12/14 09:42:44;;;;;;;3.74;3.44;;;10.30;99.90;;;15.48;96.68;100538.84;1721638;73;24429;-85
2020/12/14 09:45:05;;;;;;;3.68;3.38;;;10.40;99.90;;;15.34;96.90;100539.89;1718444;75;24444;-85
2020/12/14 09:47:22;;;;;;;3.72;3.23;;;10.40;99.90;;;15.65;96.01;100548.65;1724370;73;24893;-83
2020/12/14 09:49:39;;;;;;;3.11;2.81;;;10.50;99.90;;;15.66;95.71;100545.59;1718080;73;24471;-83
2020/12/14 09:51:56;;;;;;;3.24;2.95;;;10.50;99.90;;;15.63;96.57;100545.64;1730449;73;24477;-85